M S San Francisco — WZC3886 — position and weather

sailwx.info

Track history (hours):
 
Tides and Currents Weather Stations Pressure Air Temp Water Temp Dewpoint Dewpoint Depression Visibility Wind Speed Wind Dir Waves Ship Positions

M S San Francisco

Owner: GOLDEN GATE BRIDGE HWY & TRANSP DISTRICT, LARKSPUR, CA. More information available from US FCC via Universal Licensing System and Coast Guard Vessel Documentation Center.

Last reported at 2016-Jun-28 21:33 UTC. Time now 2016-Jun-28 22:29 UTC.
Position N 37°48' W 122°24'.

Length 58 m.

Type: Passenger vessel. MMSI: 366963980.

Date/timePositionNaut miles runAvg speedWind from/ knotsBaromVisibWave heightAir tempDewpointWater temp
2016-Jun-28 21:33N 37°48' W 122°24'5 5.4
2016-Jun-28 20:34N 37°51' W 122°29'3 3.2
2016-Jun-28 19:33N 37°50' W 122°25'2 2.1
2016-Jun-28 18:23N 37°48' W 122°24'5 6.5
2016-Jun-28 17:33N 37°51' W 122°29'5 4.5
2016-Jun-28 16:22N 37°48' W 122°24'3 3.5
2016-Jun-28 15:33N 37°50' W 122°25'2 2.4
2016-Jun-28 14:33N 37°48' W 122°23'10 1.2
2016-Jun-28 06:30N 37°57' W 122°30'11 5.9
2016-Jun-28 04:33N 37°47' W 122°23'0 0.0
2016-Jun-28 03:33N 37°47' W 122°23'0 0.0
2016-Jun-28 02:33N 37°47' W 122°23'2 1.9
2016-Jun-28 01:33N 37°49' W 122°23'10 8.8
2016-Jun-28 00:25N 37°57' W 122°31'4 0.2
2016-Jun-27 00:31N 37°54' W 122°26'8 3.9
2016-Jun-26 22:33N 37°47' W 122°23'0 0.0
2016-Jun-26 21:33N 37°47' W 122°23'0 0.0
2016-Jun-26 20:33N 37°47' W 122°23'0 0.0
2016-Jun-26 19:33N 37°47' W 122°23'10 0.7
2016-Jun-26 06:07N 37°56' W 122°28'1017.4
2016-Jun-26 05:34N 37°47' W 122°23'0 0.1
2016-Jun-26 04:33N 37°47' W 122°23'0 0.0
2016-Jun-26 03:34N 37°47' W 122°23'0 0.0
2016-Jun-26 02:34N 37°47' W 122°23'0 0.0
2016-Jun-26 01:34N 37°47' W 122°23'6 0.3
2016-Jun-25 05:33N 37°53' W 122°25'6 6.2
2016-Jun-25 04:33N 37°47' W 122°23'0 0.0
2016-Jun-25 03:33N 37°47' W 122°23'0 0.0
2016-Jun-25 02:33N 37°47' W 122°23'2 1.6
2016-Jun-25 01:33N 37°48' W 122°23'  
Track history (hours):
 
Tides and Currents Weather Stations Pressure Air Temp Water Temp Dewpoint Dewpoint Depression Visibility Wind Speed Wind Dir Waves Ship Positions

M S San Francisco

Owner: GOLDEN GATE BRIDGE HWY & TRANSP DISTRICT, LARKSPUR, CA. More information available from US FCC via Universal Licensing System and Coast Guard Vessel Documentation Center.

Last reported at 2016-Jun-28 21:33 UTC. Time now 2016-Jun-28 22:29 UTC.
Position N 37°48' W 122°24'.

Length 58 m.

Type: Passenger vessel. MMSI: 366963980.

Date/timePositionNaut miles runAvg speedWind from/ knotsBaromVisibWave heightAir tempDewpointWater temp
2016-Jun-28 21:33N 37°48' W 122°24'5 5.4
2016-Jun-28 20:34N 37°51' W 122°29'3 3.2
2016-Jun-28 19:33N 37°50' W 122°25'2 2.1
2016-Jun-28 18:23N 37°48' W 122°24'5 6.5
2016-Jun-28 17:33N 37°51' W 122°29'5 4.5
2016-Jun-28 16:22N 37°48' W 122°24'3 3.5
2016-Jun-28 15:33N 37°50' W 122°25'2 2.4
2016-Jun-28 14:33N 37°48' W 122°23'10 1.2
2016-Jun-28 06:30N 37°57' W 122°30'11 5.9
2016-Jun-28 04:33N 37°47' W 122°23'0 0.0
2016-Jun-28 03:33N 37°47' W 122°23'0 0.0
2016-Jun-28 02:33N 37°47' W 122°23'2 1.9
2016-Jun-28 01:33N 37°49' W 122°23'10 8.8
2016-Jun-28 00:25N 37°57' W 122°31'4 0.2
2016-Jun-27 00:31N 37°54' W 122°26'8 3.9
2016-Jun-26 22:33N 37°47' W 122°23'0 0.0
2016-Jun-26 21:33N 37°47' W 122°23'0 0.0
2016-Jun-26 20:33N 37°47' W 122°23'0 0.0
2016-Jun-26 19:33N 37°47' W 122°23'10 0.7
2016-Jun-26 06:07N 37°56' W 122°28'1017.4
2016-Jun-26 05:34N 37°47' W 122°23'0 0.1
2016-Jun-26 04:33N 37°47' W 122°23'0 0.0
2016-Jun-26 03:34N 37°47' W 122°23'0 0.0
2016-Jun-26 02:34N 37°47' W 122°23'0 0.0
2016-Jun-26 01:34N 37°47' W 122°23'6 0.3
2016-Jun-25 05:33N 37°53' W 122°25'6 6.2
2016-Jun-25 04:33N 37°47' W 122°23'0 0.0
2016-Jun-25 03:33N 37°47' W 122°23'0 0.0
2016-Jun-25 02:33N 37°47' W 122°23'2 1.6
2016-Jun-25 01:33N 37°48' W 122°23'  

Dump ship's entire track history